sensor_id;sensor_type;location;lat;lon;timestamp;P1;durP1;ratioP1;P2;durP2;ratioP2
75930;SDS011;64609;47.052;15.462;2023-05-16T00:01:29;2.72;;;1.80;;
75930;SDS011;64609;47.052;15.462;2023-05-16T00:03:55;5.38;;;2.20;;
75930;SDS011;64609;47.052;15.462;2023-05-16T00:06:21;4.00;;;2.30;;
75930;SDS011;64609;47.052;15.462;2023-05-16T00:08:47;4.57;;;2.15;;
75930;SDS011;64609;47.052;15.462;2023-05-16T00:11:13;2.38;;;2.15;;
75930;SDS011;64609;47.052;15.462;2023-05-16T00:13:40;5.80;;;2.10;;
75930;SDS011;64609;47.052;15.462;2023-05-16T00:16:07;7.03;;;2.20;;
75930;SDS011;64609;47.052;15.462;2023-05-16T00:18:33;3.75;;;1.90;;
75930;SDS011;64609;47.052;15.462;2023-05-16T00:21:01;3.75;;;1.98;;
75930;SDS011;64609;47.052;15.462;2023-05-16T00:23:28;3.10;;;2.05;;
75930;SDS011;64609;47.052;15.462;2023-05-16T00:25:54;3.08;;;2.17;;
75930;SDS011;64609;47.052;15.462;2023-05-16T00:28:20;2.75;;;2.05;;
75930;SDS011;64609;47.052;15.462;2023-05-16T00:30:46;3.10;;;2.20;;
75930;SDS011;64609;47.052;15.462;2023-05-16T00:33:12;3.33;;;2.30;;
75930;SDS011;64609;47.052;15.462;2023-05-16T00:35:38;2.92;;;1.98;;
75930;SDS011;64609;47.052;15.462;2023-05-16T00:38:04;4.47;;;2.03;;
75930;SDS011;64609;47.052;15.462;2023-05-16T00:40:30;3.55;;;2.17;;
75930;SDS011;64609;47.052;15.462;2023-05-16T00:42:56;5.18;;;2.10;;
75930;SDS011;64609;47.052;15.462;2023-05-16T00:45:22;4.05;;;2.20;;
75930;SDS011;64609;47.052;15.462;2023-05-16T00:47:48;5.25;;;2.15;;
75930;SDS011;64609;47.052;15.462;2023-05-16T00:50:15;3.97;;;2.40;;
75930;SDS011;64609;47.052;15.462;2023-05-16T00:52:41;4.03;;;2.30;;
75930;SDS011;64609;47.052;15.462;2023-05-16T00:55:07;4.55;;;2.20;;
75930;SDS011;64609;47.052;15.462;2023-05-16T00:57:37;3.80;;;2.00;;
75930;SDS011;64609;47.052;15.462;2023-05-16T01:00:06;3.45;;;2.10;;
75930;SDS011;64609;47.052;15.462;2023-05-16T01:02:35;2.28;;;2.05;;
75930;SDS011;64609;47.052;15.462;2023-05-16T01:05:02;4.07;;;2.70;;
75930;SDS011;64609;47.052;15.462;2023-05-16T01:07:32;4.88;;;2.47;;
75930;SDS011;64609;47.052;15.462;2023-05-16T01:09:59;3.50;;;2.17;;
75930;SDS011;64609;47.052;15.462;2023-05-16T01:20:42;3.40;;;2.35;;
75930;SDS011;64609;47.052;15.462;2023-05-16T01:26:23;7.18;;;2.80;;
75930;SDS011;64609;47.052;15.462;2023-05-16T01:28:51;5.53;;;2.38;;
75930;SDS011;64609;47.052;15.462;2023-05-16T01:31:18;4.00;;;2.58;;
75930;SDS011;64609;47.052;15.462;2023-05-16T01:33:45;3.90;;;2.60;;
75930;SDS011;64609;47.052;15.462;2023-05-16T01:36:32;7.00;;;2.88;;
75930;SDS011;64609;47.052;15.462;2023-05-16T01:44:44;7.03;;;2.60;;
75930;SDS011;64609;47.052;15.462;2023-05-16T01:47:23;6.18;;;2.70;;
75930;SDS011;64609;47.052;15.462;2023-05-16T01:52:37;3.70;;;2.72;;
75930;SDS011;64609;47.052;15.462;2023-05-16T01:55:06;2.90;;;2.42;;
75930;SDS011;64609;47.052;15.462;2023-05-16T01:57:36;6.90;;;2.80;;
75930;SDS011;64609;47.052;15.462;2023-05-16T02:00:04;6.30;;;2.90;;
75930;SDS011;64609;47.052;15.462;2023-05-16T02:02:30;7.72;;;2.95;;
75930;SDS011;64609;47.052;15.462;2023-05-16T02:04:56;4.00;;;2.42;;
75930;SDS011;64609;47.052;15.462;2023-05-16T02:07:22;5.63;;;2.60;;
75930;SDS011;64609;47.052;15.462;2023-05-16T02:09:47;9.23;;;2.65;;
75930;SDS011;64609;47.052;15.462;2023-05-16T02:12:13;3.17;;;2.38;;
75930;SDS011;64609;47.052;15.462;2023-05-16T02:14:39;6.07;;;2.80;;
75930;SDS011;64609;47.052;15.462;2023-05-16T02:17:05;4.78;;;2.70;;
75930;SDS011;64609;47.052;15.462;2023-05-16T02:19:30;5.63;;;2.90;;
75930;SDS011;64609;47.052;15.462;2023-05-16T02:21:56;2.95;;;2.63;;
75930;SDS011;64609;47.052;15.462;2023-05-16T02:24:21;2.72;;;2.33;;
75930;SDS011;64609;47.052;15.462;2023-05-16T02:26:47;4.50;;;2.60;;
75930;SDS011;64609;47.052;15.462;2023-05-16T02:29:13;5.10;;;2.60;;
75930;SDS011;64609;47.052;15.462;2023-05-16T02:31:40;7.00;;;2.78;;
75930;SDS011;64609;47.052;15.462;2023-05-16T02:34:06;5.78;;;2.70;;
75930;SDS011;64609;47.052;15.462;2023-05-16T02:36:32;4.38;;;2.75;;
75930;SDS011;64609;47.052;15.462;2023-05-16T02:39:00;4.00;;;2.80;;
75930;SDS011;64609;47.052;15.462;2023-05-16T02:41:26;4.10;;;2.78;;
75930;SDS011;64609;47.052;15.462;2023-05-16T02:43:52;8.80;;;2.75;;
75930;SDS011;64609;47.052;15.462;2023-05-16T02:46:21;5.72;;;2.60;;
75930;SDS011;64609;47.052;15.462;2023-05-16T02:48:57;4.03;;;2.78;;
75930;SDS011;64609;47.052;15.462;2023-05-16T02:51:25;5.85;;;2.80;;
75930;SDS011;64609;47.052;15.462;2023-05-16T02:53:52;4.60;;;3.05;;
75930;SDS011;64609;47.052;15.462;2023-05-16T02:56:20;9.13;;;3.00;;
75930;SDS011;64609;47.052;15.462;2023-05-16T02:58:47;7.47;;;3.10;;
75930;SDS011;64609;47.052;15.462;2023-05-16T03:01:13;4.85;;;3.08;;
75930;SDS011;64609;47.052;15.462;2023-05-16T03:03:40;6.03;;;3.50;;
75930;SDS011;64609;47.052;15.462;2023-05-16T03:06:06;5.07;;;3.10;;
75930;SDS011;64609;47.052;15.462;2023-05-16T03:08:32;4.90;;;3.10;;
75930;SDS011;64609;47.052;15.462;2023-05-16T03:10:58;4.55;;;2.90;;
75930;SDS011;64609;47.052;15.462;2023-05-16T03:13:23;8.02;;;2.85;;
75930;SDS011;64609;47.052;15.462;2023-05-16T03:15:49;6.72;;;3.00;;
75930;SDS011;64609;47.052;15.462;2023-05-16T03:18:15;5.00;;;2.83;;
75930;SDS011;64609;47.052;15.462;2023-05-16T03:20:41;5.30;;;3.17;;
75930;SDS011;64609;47.052;15.462;2023-05-16T03:23:07;6.78;;;3.17;;
75930;SDS011;64609;47.052;15.462;2023-05-16T03:25:35;5.03;;;3.13;;
75930;SDS011;64609;47.052;15.462;2023-05-16T03:28:04;10.73;;;3.20;;
75930;SDS011;64609;47.052;15.462;2023-05-16T03:30:34;5.60;;;2.80;;
75930;SDS011;64609;47.052;15.462;2023-05-16T03:33:00;4.32;;;2.92;;
75930;SDS011;64609;47.052;15.462;2023-05-16T03:35:26;5.78;;;3.17;;
75930;SDS011;64609;47.052;15.462;2023-05-16T03:37:52;6.93;;;3.03;;
75930;SDS011;64609;47.052;15.462;2023-05-16T03:40:18;6.40;;;3.42;;
75930;SDS011;64609;47.052;15.462;2023-05-16T03:42:44;6.13;;;3.17;;
75930;SDS011;64609;47.052;15.462;2023-05-16T03:45:11;4.97;;;3.20;;
75930;SDS011;64609;47.052;15.462;2023-05-16T03:47:37;9.75;;;3.20;;
75930;SDS011;64609;47.052;15.462;2023-05-16T03:50:03;6.07;;;3.33;;
75930;SDS011;64609;47.052;15.462;2023-05-16T03:52:29;6.30;;;2.90;;
75930;SDS011;64609;47.052;15.462;2023-05-16T03:54:55;5.18;;;3.03;;
75930;SDS011;64609;47.052;15.462;2023-05-16T03:57:21;4.47;;;2.80;;
75930;SDS011;64609;47.052;15.462;2023-05-16T03:59:46;5.45;;;2.92;;
75930;SDS011;64609;47.052;15.462;2023-05-16T04:02:12;6.18;;;3.10;;
75930;SDS011;64609;47.052;15.462;2023-05-16T04:04:38;8.38;;;3.30;;
75930;SDS011;64609;47.052;15.462;2023-05-16T04:07:03;3.72;;;2.95;;
75930;SDS011;64609;47.052;15.462;2023-05-16T04:09:30;6.80;;;3.20;;
75930;SDS011;64609;47.052;15.462;2023-05-16T04:11:56;8.88;;;3.47;;
75930;SDS011;64609;47.052;15.462;2023-05-16T04:14:25;9.63;;;3.53;;
75930;SDS011;64609;47.052;15.462;2023-05-16T04:16:51;7.18;;;2.75;;
75930;SDS011;64609;47.052;15.462;2023-05-16T04:19:17;4.07;;;3.00;;
75930;SDS011;64609;47.052;15.462;2023-05-16T04:21:42;6.80;;;3.00;;
75930;SDS011;64609;47.052;15.462;2023-05-16T04:24:08;5.80;;;3.13;;
75930;SDS011;64609;47.052;15.462;2023-05-16T04:26:34;4.82;;;2.97;;
75930;SDS011;64609;47.052;15.462;2023-05-16T04:29:01;6.88;;;3.03;;
75930;SDS011;64609;47.052;15.462;2023-05-16T04:31:27;5.07;;;2.95;;
75930;SDS011;64609;47.052;15.462;2023-05-16T04:33:53;6.68;;;3.00;;
75930;SDS011;64609;47.052;15.462;2023-05-16T04:36:18;8.70;;;3.50;;
75930;SDS011;64609;47.052;15.462;2023-05-16T04:38:45;5.53;;;2.83;;
75930;SDS011;64609;47.052;15.462;2023-05-16T04:41:11;5.85;;;2.90;;
75930;SDS011;64609;47.052;15.462;2023-05-16T04:43:37;11.18;;;3.28;;
75930;SDS011;64609;47.052;15.462;2023-05-16T04:46:04;6.15;;;3.25;;
75930;SDS011;64609;47.052;15.462;2023-05-16T04:48:31;9.60;;;3.13;;
75930;SDS011;64609;47.052;15.462;2023-05-16T04:50:57;5.57;;;3.50;;
75930;SDS011;64609;47.052;15.462;2023-05-16T04:53:23;8.45;;;3.67;;
75930;SDS011;64609;47.052;15.462;2023-05-16T04:55:49;8.77;;;3.30;;
75930;SDS011;64609;47.052;15.462;2023-05-16T04:58:14;5.30;;;3.30;;
75930;SDS011;64609;47.052;15.462;2023-05-16T05:00:40;6.63;;;3.53;;
75930;SDS011;64609;47.052;15.462;2023-05-16T05:03:06;7.45;;;3.40;;
75930;SDS011;64609;47.052;15.462;2023-05-16T05:05:32;9.02;;;3.78;;
75930;SDS011;64609;47.052;15.462;2023-05-16T05:07:58;7.15;;;3.67;;
75930;SDS011;64609;47.052;15.462;2023-05-16T05:10:24;8.52;;;3.92;;
75930;SDS011;64609;47.052;15.462;2023-05-16T05:12:51;9.27;;;3.85;;
75930;SDS011;64609;47.052;15.462;2023-05-16T05:15:18;11.57;;;3.80;;
75930;SDS011;64609;47.052;15.462;2023-05-16T05:17:43;6.82;;;4.15;;
75930;SDS011;64609;47.052;15.462;2023-05-16T05:20:09;8.02;;;4.13;;
75930;SDS011;64609;47.052;15.462;2023-05-16T05:22:36;12.07;;;4.15;;
75930;SDS011;64609;47.052;15.462;2023-05-16T05:25:01;8.25;;;4.32;;
75930;SDS011;64609;47.052;15.462;2023-05-16T05:27:28;8.40;;;4.93;;
75930;SDS011;64609;47.052;15.462;2023-05-16T05:29:53;10.32;;;4.95;;
75930;SDS011;64609;47.052;15.462;2023-05-16T05:32:19;7.55;;;4.80;;
75930;SDS011;64609;47.052;15.462;2023-05-16T05:34:45;8.65;;;4.07;;
75930;SDS011;64609;47.052;15.462;2023-05-16T05:37:10;10.60;;;4.05;;
75930;SDS011;64609;47.052;15.462;2023-05-16T05:39:36;8.38;;;3.80;;
75930;SDS011;64609;47.052;15.462;2023-05-16T05:42:02;6.75;;;4.10;;
75930;SDS011;64609;47.052;15.462;2023-05-16T05:44:28;6.13;;;3.67;;
75930;SDS011;64609;47.052;15.462;2023-05-16T05:46:54;5.28;;;3.72;;
75930;SDS011;64609;47.052;15.462;2023-05-16T05:49:21;7.18;;;3.65;;
75930;SDS011;64609;47.052;15.462;2023-05-16T05:51:50;5.22;;;3.45;;
75930;SDS011;64609;47.052;15.462;2023-05-16T05:54:19;7.55;;;3.60;;
75930;SDS011;64609;47.052;15.462;2023-05-16T05:56:45;5.50;;;3.78;;
75930;SDS011;64609;47.052;15.462;2023-05-16T05:59:11;6.53;;;3.95;;
75930;SDS011;64609;47.052;15.462;2023-05-16T06:01:37;6.85;;;4.15;;
75930;SDS011;64609;47.052;15.462;2023-05-16T06:04:03;8.32;;;4.20;;
75930;SDS011;64609;47.052;15.462;2023-05-16T06:06:29;8.80;;;4.60;;
75930;SDS011;64609;47.052;15.462;2023-05-16T06:08:55;10.35;;;4.47;;
75930;SDS011;64609;47.052;15.462;2023-05-16T06:11:22;6.25;;;3.85;;
75930;SDS011;64609;47.052;15.462;2023-05-16T06:13:49;9.20;;;4.32;;
75930;SDS011;64609;47.052;15.462;2023-05-16T06:16:15;8.05;;;4.28;;
75930;SDS011;64609;47.052;15.462;2023-05-16T06:18:41;6.35;;;4.20;;
75930;SDS011;64609;47.052;15.462;2023-05-16T06:21:07;9.00;;;4.32;;
75930;SDS011;64609;47.052;15.462;2023-05-16T06:23:33;5.28;;;4.45;;
75930;SDS011;64609;47.052;15.462;2023-05-16T06:26:00;5.10;;;4.05;;
75930;SDS011;64609;47.052;15.462;2023-05-16T06:28:27;8.50;;;4.05;;
75930;SDS011;64609;47.052;15.462;2023-05-16T06:30:52;10.20;;;4.55;;
75930;SDS011;64609;47.052;15.462;2023-05-16T06:33:18;6.80;;;4.30;;
75930;SDS011;64609;47.052;15.462;2023-05-16T06:35:44;6.53;;;4.43;;
75930;SDS011;64609;47.052;15.462;2023-05-16T06:38:12;9.95;;;4.95;;
75930;SDS011;64609;47.052;15.462;2023-05-16T06:40:39;19.30;;;5.65;;
75930;SDS011;64609;47.052;15.462;2023-05-16T06:43:04;12.25;;;5.18;;
75930;SDS011;64609;47.052;15.462;2023-05-16T06:45:30;14.18;;;5.82;;
75930;SDS011;64609;47.052;15.462;2023-05-16T06:47:56;13.43;;;6.57;;
75930;SDS011;64609;47.052;15.462;2023-05-16T06:50:22;13.05;;;6.10;;
75930;SDS011;64609;47.052;15.462;2023-05-16T06:52:48;14.85;;;6.90;;
75930;SDS011;64609;47.052;15.462;2023-05-16T06:55:13;19.30;;;6.25;;
75930;SDS011;64609;47.052;15.462;2023-05-16T06:57:39;12.95;;;6.28;;
75930;SDS011;64609;47.052;15.462;2023-05-16T07:00:05;11.50;;;5.55;;
75930;SDS011;64609;47.052;15.462;2023-05-16T07:02:32;13.20;;;6.03;;
75930;SDS011;64609;47.052;15.462;2023-05-16T07:04:57;17.05;;;5.50;;
75930;SDS011;64609;47.052;15.462;2023-05-16T07:07:23;13.05;;;5.80;;
75930;SDS011;64609;47.052;15.462;2023-05-16T07:09:49;13.50;;;5.95;;
75930;SDS011;64609;47.052;15.462;2023-05-16T07:12:14;12.20;;;6.07;;
75930;SDS011;64609;47.052;15.462;2023-05-16T07:14:40;10.30;;;6.32;;
75930;SDS011;64609;47.052;15.462;2023-05-16T07:17:07;14.57;;;6.32;;
75930;SDS011;64609;47.052;15.462;2023-05-16T07:19:33;14.07;;;6.30;;
75930;SDS011;64609;47.052;15.462;2023-05-16T07:21:59;10.70;;;5.63;;
75930;SDS011;64609;47.052;15.462;2023-05-16T07:24:25;11.13;;;6.60;;
75930;SDS011;64609;47.052;15.462;2023-05-16T07:26:50;10.73;;;6.70;;
75930;SDS011;64609;47.052;15.462;2023-05-16T07:29:16;15.65;;;6.70;;
75930;SDS011;64609;47.052;15.462;2023-05-16T07:31:42;18.30;;;7.47;;
75930;SDS011;64609;47.052;15.462;2023-05-16T07:34:08;14.45;;;8.75;;
75930;SDS011;64609;47.052;15.462;2023-05-16T07:36:35;19.63;;;9.70;;
75930;SDS011;64609;47.052;15.462;2023-05-16T07:39:01;14.50;;;9.77;;
75930;SDS011;64609;47.052;15.462;2023-05-16T07:41:27;16.52;;;8.80;;
75930;SDS011;64609;47.052;15.462;2023-05-16T07:43:53;12.95;;;7.50;;
75930;SDS011;64609;47.052;15.462;2023-05-16T07:46:19;10.45;;;7.47;;
75930;SDS011;64609;47.052;15.462;2023-05-16T07:48:45;11.88;;;7.75;;
75930;SDS011;64609;47.052;15.462;2023-05-16T07:51:10;11.98;;;7.05;;
75930;SDS011;64609;47.052;15.462;2023-05-16T07:53:36;12.55;;;6.65;;
75930;SDS011;64609;47.052;15.462;2023-05-16T07:56:02;11.75;;;7.15;;
75930;SDS011;64609;47.052;15.462;2023-05-16T07:58:28;10.50;;;6.70;;
75930;SDS011;64609;47.052;15.462;2023-05-16T08:00:53;10.35;;;7.43;;
75930;SDS011;64609;47.052;15.462;2023-05-16T08:03:19;26.85;;;6.60;;
75930;SDS011;64609;47.052;15.462;2023-05-16T08:05:45;12.02;;;5.88;;
75930;SDS011;64609;47.052;15.462;2023-05-16T08:08:12;13.10;;;6.57;;
75930;SDS011;64609;47.052;15.462;2023-05-16T08:10:38;9.48;;;7.00;;
75930;SDS011;64609;47.052;15.462;2023-05-16T08:13:04;9.02;;;6.63;;
75930;SDS011;64609;47.052;15.462;2023-05-16T08:15:30;9.18;;;6.40;;
75930;SDS011;64609;47.052;15.462;2023-05-16T08:17:58;13.90;;;6.47;;
75930;SDS011;64609;47.052;15.462;2023-05-16T08:20:24;10.10;;;5.88;;
75930;SDS011;64609;47.052;15.462;2023-05-16T08:22:50;9.30;;;6.35;;
75930;SDS011;64609;47.052;15.462;2023-05-16T08:25:16;7.57;;;5.90;;
75930;SDS011;64609;47.052;15.462;2023-05-16T08:27:43;9.18;;;6.30;;
75930;SDS011;64609;47.052;15.462;2023-05-16T08:30:10;9.10;;;6.32;;
75930;SDS011;64609;47.052;15.462;2023-05-16T08:32:36;10.55;;;6.10;;
75930;SDS011;64609;47.052;15.462;2023-05-16T08:35:02;15.38;;;6.97;;
75930;SDS011;64609;47.052;15.462;2023-05-16T08:37:28;13.65;;;6.57;;
75930;SDS011;64609;47.052;15.462;2023-05-16T08:39:54;10.80;;;6.15;;
75930;SDS011;64609;47.052;15.462;2023-05-16T08:42:20;8.23;;;6.07;;
75930;SDS011;64609;47.052;15.462;2023-05-16T08:44:46;10.40;;;6.40;;
75930;SDS011;64609;47.052;15.462;2023-05-16T08:47:13;8.15;;;6.18;;
75930;SDS011;64609;47.052;15.462;2023-05-16T08:49:48;8.95;;;5.90;;
75930;SDS011;64609;47.052;15.462;2023-05-16T08:52:17;8.65;;;6.30;;
75930;SDS011;64609;47.052;15.462;2023-05-16T08:54:45;11.48;;;6.43;;
75930;SDS011;64609;47.052;15.462;2023-05-16T08:57:12;9.80;;;6.68;;
75930;SDS011;64609;47.052;15.462;2023-05-16T08:59:39;9.25;;;6.55;;
75930;SDS011;64609;47.052;15.462;2023-05-16T09:02:05;8.43;;;6.18;;
75930;SDS011;64609;47.052;15.462;2023-05-16T09:04:32;8.18;;;6.45;;
75930;SDS011;64609;47.052;15.462;2023-05-16T09:06:58;9.52;;;6.72;;
75930;SDS011;64609;47.052;15.462;2023-05-16T09:09:23;9.73;;;6.45;;
75930;SDS011;64609;47.052;15.462;2023-05-16T09:11:49;7.55;;;6.18;;
75930;SDS011;64609;47.052;15.462;2023-05-16T09:14:15;7.65;;;6.20;;
75930;SDS011;64609;47.052;15.462;2023-05-16T09:16:40;9.52;;;5.82;;
75930;SDS011;64609;47.052;15.462;2023-05-16T09:19:06;9.40;;;5.95;;
75930;SDS011;64609;47.052;15.462;2023-05-16T09:21:36;7.72;;;5.80;;
75930;SDS011;64609;47.052;15.462;2023-05-16T09:24:02;6.80;;;5.85;;
75930;SDS011;64609;47.052;15.462;2023-05-16T09:26:29;11.10;;;6.40;;
75930;SDS011;64609;47.052;15.462;2023-05-16T09:28:56;8.65;;;5.90;;
75930;SDS011;64609;47.052;15.462;2023-05-16T09:31:23;8.95;;;5.63;;
75930;SDS011;64609;47.052;15.462;2023-05-16T09:33:59;8.52;;;5.50;;
75930;SDS011;64609;47.052;15.462;2023-05-16T09:36:25;8.10;;;5.22;;
75930;SDS011;64609;47.052;15.462;2023-05-16T09:38:51;6.07;;;4.97;;
75930;SDS011;64609;47.052;15.462;2023-05-16T09:41:17;6.82;;;5.15;;
75930;SDS011;64609;47.052;15.462;2023-05-16T09:43:43;10.15;;;5.07;;
75930;SDS011;64609;47.052;15.462;2023-05-16T09:46:12;6.60;;;5.20;;
75930;SDS011;64609;47.052;15.462;2023-05-16T09:51:05;8.05;;;5.60;;
75930;SDS011;64609;47.052;15.462;2023-05-16T09:53:32;6.35;;;5.20;;
75930;SDS011;64609;47.052;15.462;2023-05-16T09:55:58;9.15;;;5.60;;
75930;SDS011;64609;47.052;15.462;2023-05-16T10:00:58;6.15;;;5.28;;
75930;SDS011;64609;47.052;15.462;2023-05-16T10:03:25;9.38;;;6.07;;
75930;SDS011;64609;47.052;15.462;2023-05-16T10:05:52;7.78;;;5.53;;
75930;SDS011;64609;47.052;15.462;2023-05-16T10:08:19;7.72;;;5.07;;
75930;SDS011;64609;47.052;15.462;2023-05-16T10:10:47;7.85;;;5.32;;
75930;SDS011;64609;47.052;15.462;2023-05-16T10:13:17;6.63;;;4.88;;
75930;SDS011;64609;47.052;15.462;2023-05-16T10:15:45;13.80;;;4.70;;
75930;SDS011;64609;47.052;15.462;2023-05-16T10:18:12;10.10;;;5.40;;
75930;SDS011;64609;47.052;15.462;2023-05-16T10:20:42;10.65;;;5.28;;
75930;SDS011;64609;47.052;15.462;2023-05-16T10:23:13;6.97;;;5.53;;
75930;SDS011;64609;47.052;15.462;2023-05-16T10:25:41;6.60;;;4.50;;
75930;SDS011;64609;47.052;15.462;2023-05-16T10:28:09;10.43;;;6.18;;
75930;SDS011;64609;47.052;15.462;2023-05-16T10:30:36;8.27;;;5.38;;
75930;SDS011;64609;47.052;15.462;2023-05-16T10:33:05;7.45;;;4.82;;
75930;SDS011;64609;47.052;15.462;2023-05-16T10:35:33;9.55;;;5.10;;
75930;SDS011;64609;47.052;15.462;2023-05-16T10:37:59;7.85;;;5.10;;
75930;SDS011;64609;47.052;15.462;2023-05-16T10:40:25;10.05;;;5.38;;
75930;SDS011;64609;47.052;15.462;2023-05-16T10:42:59;7.93;;;5.32;;
75930;SDS011;64609;47.052;15.462;2023-05-16T10:45:27;11.73;;;5.35;;
75930;SDS011;64609;47.052;15.462;2023-05-16T10:54:03;9.05;;;4.80;;
75930;SDS011;64609;47.052;15.462;2023-05-16T11:01:13;7.25;;;5.30;;
75930;SDS011;64609;47.052;15.462;2023-05-16T11:06:32;7.15;;;5.32;;
75930;SDS011;64609;47.052;15.462;2023-05-16T11:14:24;9.25;;;5.75;;
75930;SDS011;64609;47.052;15.462;2023-05-16T11:24:54;6.88;;;4.55;;
75930;SDS011;64609;47.052;15.462;2023-05-16T11:27:32;9.02;;;4.72;;
75930;SDS011;64609;47.052;15.462;2023-05-16T11:32:35;5.82;;;5.00;;
75930;SDS011;64609;47.052;15.462;2023-05-16T11:35:03;7.45;;;5.40;;
75930;SDS011;64609;47.052;15.462;2023-05-16T11:37:33;8.40;;;5.05;;
75930;SDS011;64609;47.052;15.462;2023-05-16T11:40:08;8.13;;;4.60;;
75930;SDS011;64609;47.052;15.462;2023-05-16T11:42:37;6.47;;;4.82;;
75930;SDS011;64609;47.052;15.462;2023-05-16T11:47:36;5.85;;;4.20;;
75930;SDS011;64609;47.052;15.462;2023-05-16T11:50:10;8.88;;;4.72;;
75930;SDS011;64609;47.052;15.462;2023-05-16T11:52:48;6.63;;;5.07;;
75930;SDS011;64609;47.052;15.462;2023-05-16T11:55:22;5.50;;;4.60;;
75930;SDS011;64609;47.052;15.462;2023-05-16T11:57:50;8.07;;;4.75;;
75930;SDS011;64609;47.052;15.462;2023-05-16T12:00:17;7.82;;;4.20;;
75930;SDS011;64609;47.052;15.462;2023-05-16T12:02:44;9.23;;;4.00;;
75930;SDS011;64609;47.052;15.462;2023-05-16T12:05:15;6.55;;;4.28;;
75930;SDS011;64609;47.052;15.462;2023-05-16T12:07:42;6.22;;;4.03;;
75930;SDS011;64609;47.052;15.462;2023-05-16T12:10:09;5.53;;;3.50;;
75930;SDS011;64609;47.052;15.462;2023-05-16T12:12:37;8.77;;;4.00;;
75930;SDS011;64609;47.052;15.462;2023-05-16T12:15:05;5.68;;;3.83;;
75930;SDS011;64609;47.052;15.462;2023-05-16T12:17:36;4.75;;;3.55;;
75930;SDS011;64609;47.052;15.462;2023-05-16T12:22:30;5.03;;;3.45;;
75930;SDS011;64609;47.052;15.462;2023-05-16T12:25:14;3.90;;;3.10;;
75930;SDS011;64609;47.052;15.462;2023-05-16T12:27:46;7.13;;;2.95;;
75930;SDS011;64609;47.052;15.462;2023-05-16T12:30:12;3.65;;;3.00;;
75930;SDS011;64609;47.052;15.462;2023-05-16T12:32:40;3.35;;;3.00;;
75930;SDS011;64609;47.052;15.462;2023-05-16T12:35:06;4.40;;;3.00;;
75930;SDS011;64609;47.052;15.462;2023-05-16T12:37:34;5.18;;;3.25;;
75930;SDS011;64609;47.052;15.462;2023-05-16T12:40:00;4.60;;;2.92;;
75930;SDS011;64609;47.052;15.462;2023-05-16T12:42:28;3.95;;;2.67;;
75930;SDS011;64609;47.052;15.462;2023-05-16T12:44:54;3.40;;;2.47;;
75930;SDS011;64609;47.052;15.462;2023-05-16T12:47:20;3.95;;;2.90;;
75930;SDS011;64609;47.052;15.462;2023-05-16T12:49:46;3.35;;;2.80;;
75930;SDS011;64609;47.052;15.462;2023-05-16T12:52:17;4.90;;;2.72;;
75930;SDS011;64609;47.052;15.462;2023-05-16T12:54:44;4.75;;;2.45;;
75930;SDS011;64609;47.052;15.462;2023-05-16T12:57:10;4.20;;;2.60;;
75930;SDS011;64609;47.052;15.462;2023-05-16T12:59:36;2.80;;;2.60;;
75930;SDS011;64609;47.052;15.462;2023-05-16T13:02:02;3.70;;;2.45;;
75930;SDS011;64609;47.052;15.462;2023-05-16T13:04:28;2.60;;;2.13;;
75930;SDS011;64609;47.052;15.462;2023-05-16T13:06:54;6.47;;;2.40;;
75930;SDS011;64609;47.052;15.462;2023-05-16T13:09:21;4.45;;;2.22;;
75930;SDS011;64609;47.052;15.462;2023-05-16T13:11:47;3.05;;;2.30;;
75930;SDS011;64609;47.052;15.462;2023-05-16T13:14:14;4.95;;;2.25;;
75930;SDS011;64609;47.052;15.462;2023-05-16T13:16:41;4.05;;;2.10;;
75930;SDS011;64609;47.052;15.462;2023-05-16T13:19:07;3.13;;;2.13;;
75930;SDS011;64609;47.052;15.462;2023-05-16T13:21:33;2.20;;;2.00;;
75930;SDS011;64609;47.052;15.462;2023-05-16T13:23:59;4.07;;;2.00;;
75930;SDS011;64609;47.052;15.462;2023-05-16T13:26:25;6.20;;;2.20;;
75930;SDS011;64609;47.052;15.462;2023-05-16T13:28:51;3.42;;;2.00;;
75930;SDS011;64609;47.052;15.462;2023-05-16T13:31:18;3.08;;;1.85;;
75930;SDS011;64609;47.052;15.462;2023-05-16T13:33:46;2.22;;;2.03;;
75930;SDS011;64609;47.052;15.462;2023-05-16T13:36:11;3.55;;;2.10;;
75930;SDS011;64609;47.052;15.462;2023-05-16T13:38:37;5.88;;;2.40;;
75930;SDS011;64609;47.052;15.462;2023-05-16T13:41:03;4.25;;;1.95;;
75930;SDS011;64609;47.052;15.462;2023-05-16T13:43:28;4.85;;;2.00;;
75930;SDS011;64609;47.052;15.462;2023-05-16T13:45:54;3.03;;;1.92;;
75930;SDS011;64609;47.052;15.462;2023-05-16T13:48:21;2.80;;;1.95;;
75930;SDS011;64609;47.052;15.462;2023-05-16T13:50:46;4.63;;;1.80;;
75930;SDS011;64609;47.052;15.462;2023-05-16T13:53:12;2.53;;;1.90;;
75930;SDS011;64609;47.052;15.462;2023-05-16T13:55:38;4.18;;;1.90;;
75930;SDS011;64609;47.052;15.462;2023-05-16T13:58:04;2.38;;;2.00;;
75930;SDS011;64609;47.052;15.462;2023-05-16T14:00:30;5.40;;;2.13;;
75930;SDS011;64609;47.052;15.462;2023-05-16T14:02:56;3.33;;;1.90;;
75930;SDS011;64609;47.052;15.462;2023-05-16T14:05:21;2.67;;;1.83;;
75930;SDS011;64609;47.052;15.462;2023-05-16T14:07:47;2.10;;;1.90;;
75930;SDS011;64609;47.052;15.462;2023-05-16T14:10:13;3.13;;;2.00;;
75930;SDS011;64609;47.052;15.462;2023-05-16T14:12:38;2.25;;;1.90;;
75930;SDS011;64609;47.052;15.462;2023-05-16T14:15:04;4.82;;;2.22;;
75930;SDS011;64609;47.052;15.462;2023-05-16T14:17:31;2.97;;;2.20;;
75930;SDS011;64609;47.052;15.462;2023-05-16T14:19:57;3.72;;;2.03;;
75930;SDS011;64609;47.052;15.462;2023-05-16T14:22:22;4.50;;;2.10;;
75930;SDS011;64609;47.052;15.462;2023-05-16T14:24:48;3.72;;;2.10;;
75930;SDS011;64609;47.052;15.462;2023-05-16T14:27:14;3.38;;;2.30;;
75930;SDS011;64609;47.052;15.462;2023-05-16T14:29:41;3.13;;;2.38;;
75930;SDS011;64609;47.052;15.462;2023-05-16T14:32:06;2.42;;;2.13;;
75930;SDS011;64609;47.052;15.462;2023-05-16T14:34:34;2.75;;;2.20;;
75930;SDS011;64609;47.052;15.462;2023-05-16T14:37:00;2.90;;;2.30;;
75930;SDS011;64609;47.052;15.462;2023-05-16T14:39:25;3.53;;;2.65;;
75930;SDS011;64609;47.052;15.462;2023-05-16T14:41:51;3.47;;;2.63;;
75930;SDS011;64609;47.052;15.462;2023-05-16T14:44:17;4.38;;;2.75;;
75930;SDS011;64609;47.052;15.462;2023-05-16T14:46:45;2.63;;;2.40;;
75930;SDS011;64609;47.052;15.462;2023-05-16T14:49:11;4.90;;;2.70;;
75930;SDS011;64609;47.052;15.462;2023-05-16T14:51:37;4.72;;;2.45;;
75930;SDS011;64609;47.052;15.462;2023-05-16T14:54:03;3.85;;;2.90;;
75930;SDS011;64609;47.052;15.462;2023-05-16T14:56:29;3.47;;;2.60;;
75930;SDS011;64609;47.052;15.462;2023-05-16T14:58:56;10.25;;;3.25;;
75930;SDS011;64609;47.052;15.462;2023-05-16T15:01:21;5.13;;;3.22;;
75930;SDS011;64609;47.052;15.462;2023-05-16T15:03:47;8.43;;;3.10;;
75930;SDS011;64609;47.052;15.462;2023-05-16T15:06:13;6.70;;;2.90;;
75930;SDS011;64609;47.052;15.462;2023-05-16T15:08:38;6.82;;;2.97;;
75930;SDS011;64609;47.052;15.462;2023-05-16T15:11:04;7.00;;;3.08;;
75930;SDS011;64609;47.052;15.462;2023-05-16T15:13:30;9.10;;;3.53;;
75930;SDS011;64609;47.052;15.462;2023-05-16T15:15:55;4.60;;;3.20;;
75930;SDS011;64609;47.052;15.462;2023-05-16T15:18:22;6.22;;;2.90;;
75930;SDS011;64609;47.052;15.462;2023-05-16T15:20:47;7.30;;;3.60;;
75930;SDS011;64609;47.052;15.462;2023-05-16T15:23:13;4.05;;;3.30;;
75930;SDS011;64609;47.052;15.462;2023-05-16T15:25:39;5.55;;;3.42;;
75930;SDS011;64609;47.052;15.462;2023-05-16T15:28:04;7.88;;;3.35;;
75930;SDS011;64609;47.052;15.462;2023-05-16T15:30:30;10.65;;;3.20;;